sensor_id;sensor_type;location;lat;lon;timestamp;P1;durP1;ratioP1;P2;durP2;ratioP2
3307;SDS011;1666;48.898;9.182;2022-12-07T00:00:36;16.50;;;9.32;;
3307;SDS011;1666;48.898;9.182;2022-12-07T00:03:06;15.80;;;8.70;;
3307;SDS011;1666;48.898;9.182;2022-12-07T00:05:38;14.65;;;9.20;;
3307;SDS011;1666;48.898;9.182;2022-12-07T00:08:08;13.52;;;8.82;;
3307;SDS011;1666;48.898;9.182;2022-12-07T00:10:38;12.60;;;8.93;;
3307;SDS011;1666;48.898;9.182;2022-12-07T00:13:08;13.02;;;9.10;;
3307;SDS011;1666;48.898;9.182;2022-12-07T00:15:38;15.35;;;9.00;;
3307;SDS011;1666;48.898;9.182;2022-12-07T00:18:07;15.55;;;10.32;;
3307;SDS011;1666;48.898;9.182;2022-12-07T00:20:40;15.25;;;9.90;;
3307;SDS011;1666;48.898;9.182;2022-12-07T00:23:10;13.82;;;8.82;;
3307;SDS011;1666;48.898;9.182;2022-12-07T00:25:39;13.57;;;8.98;;
3307;SDS011;1666;48.898;9.182;2022-12-07T00:28:09;14.80;;;9.60;;
3307;SDS011;1666;48.898;9.182;2022-12-07T00:30:39;14.45;;;9.25;;
3307;SDS011;1666;48.898;9.182;2022-12-07T00:33:09;12.73;;;8.40;;
3307;SDS011;1666;48.898;9.182;2022-12-07T00:35:41;13.35;;;9.52;;
3307;SDS011;1666;48.898;9.182;2022-12-07T00:38:11;14.60;;;8.93;;
3307;SDS011;1666;48.898;9.182;2022-12-07T00:40:41;16.08;;;9.90;;
3307;SDS011;1666;48.898;9.182;2022-12-07T00:43:11;12.95;;;9.00;;
3307;SDS011;1666;48.898;9.182;2022-12-07T00:45:40;14.73;;;9.98;;
3307;SDS011;1666;48.898;9.182;2022-12-07T00:48:10;15.32;;;9.90;;
3307;SDS011;1666;48.898;9.182;2022-12-07T00:50:43;16.08;;;10.07;;
3307;SDS011;1666;48.898;9.182;2022-12-07T00:53:13;15.57;;;9.13;;
3307;SDS011;1666;48.898;9.182;2022-12-07T00:55:43;15.85;;;9.85;;
3307;SDS011;1666;48.898;9.182;2022-12-07T00:58:14;14.48;;;9.27;;
3307;SDS011;1666;48.898;9.182;2022-12-07T01:00:45;15.30;;;9.27;;
3307;SDS011;1666;48.898;9.182;2022-12-07T01:03:15;16.08;;;9.85;;
3307;SDS011;1666;48.898;9.182;2022-12-07T01:05:51;17.00;;;10.27;;
3307;SDS011;1666;48.898;9.182;2022-12-07T01:08:22;17.23;;;10.68;;
3307;SDS011;1666;48.898;9.182;2022-12-07T01:10:57;14.45;;;9.50;;
3307;SDS011;1666;48.898;9.182;2022-12-07T01:15:58;16.02;;;10.07;;
3307;SDS011;1666;48.898;9.182;2022-12-07T01:18:29;18.48;;;10.98;;
3307;SDS011;1666;48.898;9.182;2022-12-07T01:21:04;16.13;;;10.40;;
3307;SDS011;1666;48.898;9.182;2022-12-07T01:23:36;18.63;;;11.27;;
3307;SDS011;1666;48.898;9.182;2022-12-07T01:26:06;17.58;;;10.85;;
3307;SDS011;1666;48.898;9.182;2022-12-07T01:28:39;18.35;;;10.60;;
3307;SDS011;1666;48.898;9.182;2022-12-07T01:31:10;15.23;;;9.23;;
3307;SDS011;1666;48.898;9.182;2022-12-07T01:33:42;16.27;;;10.45;;
3307;SDS011;1666;48.898;9.182;2022-12-07T01:36:16;20.00;;;11.18;;
3307;SDS011;1666;48.898;9.182;2022-12-07T01:38:48;20.38;;;11.32;;
3307;SDS011;1666;48.898;9.182;2022-12-07T01:41:20;16.02;;;9.60;;
3307;SDS011;1666;48.898;9.182;2022-12-07T01:46:37;16.67;;;10.98;;
3307;SDS011;1666;48.898;9.182;2022-12-07T01:49:08;17.50;;;10.27;;
3307;SDS011;1666;48.898;9.182;2022-12-07T01:51:46;17.38;;;10.10;;
3307;SDS011;1666;48.898;9.182;2022-12-07T01:54:17;18.30;;;10.73;;
3307;SDS011;1666;48.898;9.182;2022-12-07T01:56:50;16.08;;;9.70;;
3307;SDS011;1666;48.898;9.182;2022-12-07T01:59:23;15.60;;;9.48;;
3307;SDS011;1666;48.898;9.182;2022-12-07T02:01:54;16.05;;;10.10;;
3307;SDS011;1666;48.898;9.182;2022-12-07T02:04:25;15.73;;;10.18;;
3307;SDS011;1666;48.898;9.182;2022-12-07T02:06:57;15.88;;;10.02;;
3307;SDS011;1666;48.898;9.182;2022-12-07T02:09:27;15.90;;;9.98;;
3307;SDS011;1666;48.898;9.182;2022-12-07T02:11:57;16.25;;;10.15;;
3307;SDS011;1666;48.898;9.182;2022-12-07T02:14:27;13.82;;;9.27;;
3307;SDS011;1666;48.898;9.182;2022-12-07T02:17:01;17.65;;;9.80;;
3307;SDS011;1666;48.898;9.182;2022-12-07T02:19:47;14.55;;;9.27;;
3307;SDS011;1666;48.898;9.182;2022-12-07T02:22:46;16.67;;;10.48;;
3307;SDS011;1666;48.898;9.182;2022-12-07T02:25:38;17.08;;;10.48;;
3307;SDS011;1666;48.898;9.182;2022-12-07T02:28:32;15.70;;;9.90;;
3307;SDS011;1666;48.898;9.182;2022-12-07T02:31:08;14.43;;;9.75;;
3307;SDS011;1666;48.898;9.182;2022-12-07T02:33:46;15.80;;;9.68;;
3307;SDS011;1666;48.898;9.182;2022-12-07T02:36:24;14.60;;;9.35;;
3307;SDS011;1666;48.898;9.182;2022-12-07T02:38:58;13.80;;;8.93;;
3307;SDS011;1666;48.898;9.182;2022-12-07T02:41:33;17.60;;;10.15;;
3307;SDS011;1666;48.898;9.182;2022-12-07T02:44:07;14.80;;;9.18;;
3307;SDS011;1666;48.898;9.182;2022-12-07T02:46:43;16.00;;;10.02;;
3307;SDS011;1666;48.898;9.182;2022-12-07T02:49:17;17.10;;;9.88;;
3307;SDS011;1666;48.898;9.182;2022-12-07T02:51:51;15.45;;;10.23;;
3307;SDS011;1666;48.898;9.182;2022-12-07T02:54:21;14.80;;;9.93;;
3307;SDS011;1666;48.898;9.182;2022-12-07T02:56:52;15.88;;;10.15;;
3307;SDS011;1666;48.898;9.182;2022-12-07T02:59:30;14.90;;;9.88;;
3307;SDS011;1666;48.898;9.182;2022-12-07T03:02:13;14.88;;;9.38;;
3307;SDS011;1666;48.898;9.182;2022-12-07T03:04:52;15.48;;;9.02;;
3307;SDS011;1666;48.898;9.182;2022-12-07T03:07:33;15.63;;;9.82;;
3307;SDS011;1666;48.898;9.182;2022-12-07T03:10:08;16.92;;;9.73;;
3307;SDS011;1666;48.898;9.182;2022-12-07T03:12:47;13.82;;;9.25;;
3307;SDS011;1666;48.898;9.182;2022-12-07T03:15:27;14.40;;;9.27;;
3307;SDS011;1666;48.898;9.182;2022-12-07T03:18:06;14.43;;;9.25;;
3307;SDS011;1666;48.898;9.182;2022-12-07T03:20:38;14.73;;;9.88;;
3307;SDS011;1666;48.898;9.182;2022-12-07T03:23:10;14.93;;;9.10;;
3307;SDS011;1666;48.898;9.182;2022-12-07T03:25:46;15.00;;;9.40;;
3307;SDS011;1666;48.898;9.182;2022-12-07T03:28:26;15.13;;;9.65;;
3307;SDS011;1666;48.898;9.182;2022-12-07T03:31:01;15.50;;;9.63;;
3307;SDS011;1666;48.898;9.182;2022-12-07T03:33:38;13.05;;;8.77;;
3307;SDS011;1666;48.898;9.182;2022-12-07T03:36:16;14.02;;;9.57;;
3307;SDS011;1666;48.898;9.182;2022-12-07T03:38:52;13.93;;;8.88;;
3307;SDS011;1666;48.898;9.182;2022-12-07T03:41:28;15.02;;;9.90;;
3307;SDS011;1666;48.898;9.182;2022-12-07T03:43:59;14.43;;;9.23;;
3307;SDS011;1666;48.898;9.182;2022-12-07T03:46:33;16.25;;;9.52;;
3307;SDS011;1666;48.898;9.182;2022-12-07T03:49:15;15.85;;;10.00;;
3307;SDS011;1666;48.898;9.182;2022-12-07T03:51:52;14.63;;;9.32;;
3307;SDS011;1666;48.898;9.182;2022-12-07T03:54:28;16.85;;;10.25;;
3307;SDS011;1666;48.898;9.182;2022-12-07T03:57:02;17.60;;;10.07;;
3307;SDS011;1666;48.898;9.182;2022-12-07T03:59:33;15.10;;;9.63;;
3307;SDS011;1666;48.898;9.182;2022-12-07T04:02:04;14.70;;;9.90;;
3307;SDS011;1666;48.898;9.182;2022-12-07T04:04:38;15.85;;;10.38;;
3307;SDS011;1666;48.898;9.182;2022-12-07T04:07:08;18.65;;;10.20;;
3307;SDS011;1666;48.898;9.182;2022-12-07T04:09:39;15.23;;;9.30;;
3307;SDS011;1666;48.898;9.182;2022-12-07T04:12:09;15.50;;;9.15;;
3307;SDS011;1666;48.898;9.182;2022-12-07T04:14:38;15.15;;;9.88;;
3307;SDS011;1666;48.898;9.182;2022-12-07T04:17:08;17.27;;;9.48;;
3307;SDS011;1666;48.898;9.182;2022-12-07T04:19:41;16.95;;;9.93;;
3307;SDS011;1666;48.898;9.182;2022-12-07T04:22:11;15.75;;;10.80;;
3307;SDS011;1666;48.898;9.182;2022-12-07T04:24:40;17.90;;;10.50;;
3307;SDS011;1666;48.898;9.182;2022-12-07T04:27:11;20.55;;;10.52;;
3307;SDS011;1666;48.898;9.182;2022-12-07T04:29:41;22.38;;;10.75;;
3307;SDS011;1666;48.898;9.182;2022-12-07T04:32:11;16.52;;;9.80;;
3307;SDS011;1666;48.898;9.182;2022-12-07T04:34:43;15.48;;;9.52;;
3307;SDS011;1666;48.898;9.182;2022-12-07T04:37:20;16.85;;;9.65;;
3307;SDS011;1666;48.898;9.182;2022-12-07T04:39:50;15.45;;;9.68;;
3307;SDS011;1666;48.898;9.182;2022-12-07T04:42:20;17.23;;;9.88;;
3307;SDS011;1666;48.898;9.182;2022-12-07T04:44:50;16.00;;;9.50;;
3307;SDS011;1666;48.898;9.182;2022-12-07T04:47:20;15.25;;;9.35;;
3307;SDS011;1666;48.898;9.182;2022-12-07T04:49:52;16.13;;;9.48;;
3307;SDS011;1666;48.898;9.182;2022-12-07T04:52:22;15.32;;;9.13;;
3307;SDS011;1666;48.898;9.182;2022-12-07T04:54:52;15.88;;;9.90;;
3307;SDS011;1666;48.898;9.182;2022-12-07T04:57:21;16.80;;;9.60;;
3307;SDS011;1666;48.898;9.182;2022-12-07T04:59:51;17.70;;;10.60;;
3307;SDS011;1666;48.898;9.182;2022-12-07T05:02:21;17.40;;;10.70;;
3307;SDS011;1666;48.898;9.182;2022-12-07T05:04:54;16.65;;;10.35;;
3307;SDS011;1666;48.898;9.182;2022-12-07T05:07:23;17.45;;;10.27;;
3307;SDS011;1666;48.898;9.182;2022-12-07T05:09:53;17.23;;;10.07;;
3307;SDS011;1666;48.898;9.182;2022-12-07T05:12:23;15.07;;;9.32;;
3307;SDS011;1666;48.898;9.182;2022-12-07T05:14:53;16.98;;;9.80;;
3307;SDS011;1666;48.898;9.182;2022-12-07T05:17:23;16.80;;;10.32;;
3307;SDS011;1666;48.898;9.182;2022-12-07T05:19:55;16.92;;;10.13;;
3307;SDS011;1666;48.898;9.182;2022-12-07T05:22:26;15.73;;;10.38;;
3307;SDS011;1666;48.898;9.182;2022-12-07T05:24:56;16.40;;;10.20;;
3307;SDS011;1666;48.898;9.182;2022-12-07T05:27:26;19.00;;;10.95;;
3307;SDS011;1666;48.898;9.182;2022-12-07T05:29:55;16.83;;;10.10;;
3307;SDS011;1666;48.898;9.182;2022-12-07T05:32:26;20.77;;;10.40;;
3307;SDS011;1666;48.898;9.182;2022-12-07T05:34:58;17.67;;;10.38;;
3307;SDS011;1666;48.898;9.182;2022-12-07T05:37:28;17.42;;;10.80;;
3307;SDS011;1666;48.898;9.182;2022-12-07T05:39:58;18.30;;;10.70;;
3307;SDS011;1666;48.898;9.182;2022-12-07T05:42:28;15.65;;;9.93;;
3307;SDS011;1666;48.898;9.182;2022-12-07T05:44:58;17.75;;;10.63;;
3307;SDS011;1666;48.898;9.182;2022-12-07T05:47:29;19.33;;;10.55;;
3307;SDS011;1666;48.898;9.182;2022-12-07T05:50:02;17.38;;;10.55;;
3307;SDS011;1666;48.898;9.182;2022-12-07T05:52:33;19.42;;;10.48;;
3307;SDS011;1666;48.898;9.182;2022-12-07T05:55:03;20.70;;;10.63;;
3307;SDS011;1666;48.898;9.182;2022-12-07T05:57:34;18.90;;;11.50;;
3307;SDS011;1666;48.898;9.182;2022-12-07T06:00:06;19.13;;;10.43;;
3307;SDS011;1666;48.898;9.182;2022-12-07T06:02:34;18.63;;;10.38;;
3307;SDS011;1666;48.898;9.182;2022-12-07T06:05:07;15.35;;;9.85;;
3307;SDS011;1666;48.898;9.182;2022-12-07T06:07:37;19.35;;;11.00;;
3307;SDS011;1666;48.898;9.182;2022-12-07T06:10:07;18.58;;;10.25;;
3307;SDS011;1666;48.898;9.182;2022-12-07T06:12:38;14.85;;;9.35;;
3307;SDS011;1666;48.898;9.182;2022-12-07T06:15:09;17.80;;;10.13;;
3307;SDS011;1666;48.898;9.182;2022-12-07T06:17:39;15.88;;;9.70;;
3307;SDS011;1666;48.898;9.182;2022-12-07T06:20:12;14.77;;;9.05;;
3307;SDS011;1666;48.898;9.182;2022-12-07T06:22:41;16.17;;;8.50;;
3307;SDS011;1666;48.898;9.182;2022-12-07T06:25:11;14.93;;;8.70;;
3307;SDS011;1666;48.898;9.182;2022-12-07T06:27:41;15.85;;;8.73;;
3307;SDS011;1666;48.898;9.182;2022-12-07T06:30:11;12.50;;;8.35;;
3307;SDS011;1666;48.898;9.182;2022-12-07T06:32:41;15.35;;;7.72;;
3307;SDS011;1666;48.898;9.182;2022-12-07T06:35:14;12.18;;;7.80;;
3307;SDS011;1666;48.898;9.182;2022-12-07T06:37:43;13.35;;;8.38;;
3307;SDS011;1666;48.898;9.182;2022-12-07T06:40:13;14.00;;;8.00;;
3307;SDS011;1666;48.898;9.182;2022-12-07T06:42:44;10.10;;;6.85;;
3307;SDS011;1666;48.898;9.182;2022-12-07T06:45:14;12.07;;;7.13;;
3307;SDS011;1666;48.898;9.182;2022-12-07T06:47:43;13.38;;;7.65;;
3307;SDS011;1666;48.898;9.182;2022-12-07T06:50:16;11.48;;;6.95;;
3307;SDS011;1666;48.898;9.182;2022-12-07T06:52:46;13.38;;;7.35;;
3307;SDS011;1666;48.898;9.182;2022-12-07T06:55:16;11.00;;;6.93;;
3307;SDS011;1666;48.898;9.182;2022-12-07T06:57:45;10.05;;;6.85;;
3307;SDS011;1666;48.898;9.182;2022-12-07T07:00:16;10.52;;;6.28;;
3307;SDS011;1666;48.898;9.182;2022-12-07T07:02:47;10.77;;;6.72;;
3307;SDS011;1666;48.898;9.182;2022-12-07T07:05:20;14.43;;;7.05;;
3307;SDS011;1666;48.898;9.182;2022-12-07T07:07:50;10.80;;;6.57;;
3307;SDS011;1666;48.898;9.182;2022-12-07T07:10:41;9.48;;;6.30;;
3307;SDS011;1666;48.898;9.182;2022-12-07T07:13:11;11.90;;;7.03;;
3307;SDS011;1666;48.898;9.182;2022-12-07T07:15:42;13.77;;;7.30;;
3307;SDS011;1666;48.898;9.182;2022-12-07T07:18:12;11.20;;;6.72;;
3307;SDS011;1666;48.898;9.182;2022-12-07T07:20:44;11.02;;;6.82;;
3307;SDS011;1666;48.898;9.182;2022-12-07T07:23:14;13.38;;;7.18;;
3307;SDS011;1666;48.898;9.182;2022-12-07T07:25:44;13.30;;;6.95;;
3307;SDS011;1666;48.898;9.182;2022-12-07T07:28:14;9.90;;;5.95;;
3307;SDS011;1666;48.898;9.182;2022-12-07T07:30:44;13.73;;;8.25;;
3307;SDS011;1666;48.898;9.182;2022-12-07T07:33:15;12.45;;;7.28;;
3307;SDS011;1666;48.898;9.182;2022-12-07T07:35:47;13.18;;;7.60;;
3307;SDS011;1666;48.898;9.182;2022-12-07T07:38:20;13.98;;;7.57;;
3307;SDS011;1666;48.898;9.182;2022-12-07T07:40:50;13.57;;;7.80;;
3307;SDS011;1666;48.898;9.182;2022-12-07T07:43:19;14.52;;;7.68;;
3307;SDS011;1666;48.898;9.182;2022-12-07T07:45:49;16.08;;;8.75;;
3307;SDS011;1666;48.898;9.182;2022-12-07T07:48:19;12.32;;;7.18;;
3307;SDS011;1666;48.898;9.182;2022-12-07T07:50:54;11.02;;;6.90;;
3307;SDS011;1666;48.898;9.182;2022-12-07T07:53:24;12.45;;;7.07;;
3307;SDS011;1666;48.898;9.182;2022-12-07T07:55:54;12.18;;;6.75;;
3307;SDS011;1666;48.898;9.182;2022-12-07T07:58:24;10.57;;;7.15;;
3307;SDS011;1666;48.898;9.182;2022-12-07T08:00:54;13.25;;;7.28;;
3307;SDS011;1666;48.898;9.182;2022-12-07T08:03:23;11.52;;;6.80;;
3307;SDS011;1666;48.898;9.182;2022-12-07T08:05:56;10.10;;;6.28;;
3307;SDS011;1666;48.898;9.182;2022-12-07T08:08:26;10.32;;;6.22;;
3307;SDS011;1666;48.898;9.182;2022-12-07T08:10:56;11.38;;;6.57;;
3307;SDS011;1666;48.898;9.182;2022-12-07T08:13:27;10.38;;;6.60;;
3307;SDS011;1666;48.898;9.182;2022-12-07T08:15:57;11.35;;;6.43;;
3307;SDS011;1666;48.898;9.182;2022-12-07T08:18:27;11.07;;;6.18;;
3307;SDS011;1666;48.898;9.182;2022-12-07T08:21:01;9.90;;;5.93;;
3307;SDS011;1666;48.898;9.182;2022-12-07T08:23:31;12.63;;;6.05;;
3307;SDS011;1666;48.898;9.182;2022-12-07T08:26:06;10.88;;;6.72;;
3307;SDS011;1666;48.898;9.182;2022-12-07T08:28:38;10.68;;;6.05;;
3307;SDS011;1666;48.898;9.182;2022-12-07T08:31:10;12.15;;;6.75;;
3307;SDS011;1666;48.898;9.182;2022-12-07T08:33:41;11.63;;;6.30;;
3307;SDS011;1666;48.898;9.182;2022-12-07T08:36:14;10.35;;;6.50;;
3307;SDS011;1666;48.898;9.182;2022-12-07T08:38:44;13.10;;;6.68;;
3307;SDS011;1666;48.898;9.182;2022-12-07T08:41:34;9.45;;;5.90;;
3307;SDS011;1666;48.898;9.182;2022-12-07T08:44:04;12.52;;;6.45;;
3307;SDS011;1666;48.898;9.182;2022-12-07T08:46:35;10.90;;;6.22;;
3307;SDS011;1666;48.898;9.182;2022-12-07T08:49:08;10.05;;;5.78;;
3307;SDS011;1666;48.898;9.182;2022-12-07T08:51:43;10.80;;;6.38;;
3307;SDS011;1666;48.898;9.182;2022-12-07T08:54:15;10.65;;;5.80;;
3307;SDS011;1666;48.898;9.182;2022-12-07T08:56:47;9.40;;;5.70;;
3307;SDS011;1666;48.898;9.182;2022-12-07T08:59:24;10.07;;;6.20;;
3307;SDS011;1666;48.898;9.182;2022-12-07T09:01:55;9.23;;;5.78;;
3307;SDS011;1666;48.898;9.182;2022-12-07T09:04:25;11.82;;;5.72;;
3307;SDS011;1666;48.898;9.182;2022-12-07T09:06:58;9.50;;;5.53;;
3307;SDS011;1666;48.898;9.182;2022-12-07T09:09:28;8.48;;;5.60;;
3307;SDS011;1666;48.898;9.182;2022-12-07T09:11:58;12.77;;;5.13;;
3307;SDS011;1666;48.898;9.182;2022-12-07T09:14:28;9.77;;;5.32;;
3307;SDS011;1666;48.898;9.182;2022-12-07T09:17:04;8.32;;;4.45;;
3307;SDS011;1666;48.898;9.182;2022-12-07T09:19:37;7.47;;;4.28;;
3307;SDS011;1666;48.898;9.182;2022-12-07T09:22:11;6.65;;;4.28;;
3307;SDS011;1666;48.898;9.182;2022-12-07T09:24:41;8.43;;;4.13;;
3307;SDS011;1666;48.898;9.182;2022-12-07T09:27:12;7.10;;;4.55;;
3307;SDS011;1666;48.898;9.182;2022-12-07T09:29:44;8.00;;;5.00;;
3307;SDS011;1666;48.898;9.182;2022-12-07T09:32:13;8.48;;;4.30;;
3307;SDS011;1666;48.898;9.182;2022-12-07T09:34:43;5.10;;;3.78;;
3307;SDS011;1666;48.898;9.182;2022-12-07T09:37:16;8.23;;;4.50;;
3307;SDS011;1666;48.898;9.182;2022-12-07T09:39:46;9.32;;;4.40;;
3307;SDS011;1666;48.898;9.182;2022-12-07T09:42:22;7.93;;;4.22;;
3307;SDS011;1666;48.898;9.182;2022-12-07T09:44:57;7.13;;;4.85;;
3307;SDS011;1666;48.898;9.182;2022-12-07T09:47:28;8.75;;;4.95;;
3307;SDS011;1666;48.898;9.182;2022-12-07T09:50:03;8.25;;;4.88;;
3307;SDS011;1666;48.898;9.182;2022-12-07T09:52:39;9.70;;;4.82;;
3307;SDS011;1666;48.898;9.182;2022-12-07T09:55:11;7.55;;;4.35;;
3307;SDS011;1666;48.898;9.182;2022-12-07T09:57:42;9.82;;;5.28;;
3307;SDS011;1666;48.898;9.182;2022-12-07T10:00:14;9.98;;;4.63;;
3307;SDS011;1666;48.898;9.182;2022-12-07T10:02:46;8.40;;;5.38;;
3307;SDS011;1666;48.898;9.182;2022-12-07T10:05:19;7.25;;;4.60;;
3307;SDS011;1666;48.898;9.182;2022-12-07T10:07:55;8.27;;;5.30;;
3307;SDS011;1666;48.898;9.182;2022-12-07T10:10:26;7.75;;;4.10;;
3307;SDS011;1666;48.898;9.182;2022-12-07T10:13:05;9.27;;;5.07;;
3307;SDS011;1666;48.898;9.182;2022-12-07T10:15:40;9.30;;;5.07;;
3307;SDS011;1666;48.898;9.182;2022-12-07T10:18:25;10.45;;;4.60;;
3307;SDS011;1666;48.898;9.182;2022-12-07T10:21:00;6.85;;;4.20;;
3307;SDS011;1666;48.898;9.182;2022-12-07T10:23:39;6.20;;;3.70;;
3307;SDS011;1666;48.898;9.182;2022-12-07T10:26:19;5.35;;;3.33;;
3307;SDS011;1666;48.898;9.182;2022-12-07T10:28:50;8.90;;;3.55;;
3307;SDS011;1666;48.898;9.182;2022-12-07T10:31:21;5.65;;;3.40;;
3307;SDS011;1666;48.898;9.182;2022-12-07T10:33:53;6.32;;;4.00;;
3307;SDS011;1666;48.898;9.182;2022-12-07T10:36:24;5.57;;;3.45;;
3307;SDS011;1666;48.898;9.182;2022-12-07T10:39:01;5.07;;;3.15;;
3307;SDS011;1666;48.898;9.182;2022-12-07T10:41:33;4.35;;;3.20;;
3307;SDS011;1666;48.898;9.182;2022-12-07T10:44:03;5.40;;;3.67;;
3307;SDS011;1666;48.898;9.182;2022-12-07T10:52:39;8.20;;;4.40;;
3307;SDS011;1666;48.898;9.182;2022-12-07T10:55:23;6.93;;;4.63;;
3307;SDS011;1666;48.898;9.182;2022-12-07T10:58:21;7.72;;;4.53;;
3307;SDS011;1666;48.898;9.182;2022-12-07T11:01:03;7.78;;;4.93;;
3307;SDS011;1666;48.898;9.182;2022-12-07T11:03:42;11.05;;;4.90;;
3307;SDS011;1666;48.898;9.182;2022-12-07T11:06:26;7.63;;;5.27;;
3307;SDS011;1666;48.898;9.182;2022-12-07T11:09:04;6.90;;;4.63;;
3307;SDS011;1666;48.898;9.182;2022-12-07T11:12:15;9.00;;;5.07;;
3307;SDS011;1666;48.898;9.182;2022-12-07T11:14:54;8.88;;;4.97;;
3307;SDS011;1666;48.898;9.182;2022-12-07T11:17:32;8.35;;;5.47;;
3307;SDS011;1666;48.898;9.182;2022-12-07T11:20:11;8.23;;;5.25;;
3307;SDS011;1666;48.898;9.182;2022-12-07T11:22:51;8.80;;;5.45;;
3307;SDS011;1666;48.898;9.182;2022-12-07T11:25:29;9.20;;;5.65;;
3307;SDS011;1666;48.898;9.182;2022-12-07T11:28:11;7.82;;;4.95;;
3307;SDS011;1666;48.898;9.182;2022-12-07T11:30:53;12.65;;;7.18;;
3307;SDS011;1666;48.898;9.182;2022-12-07T11:33:29;10.02;;;6.50;;
3307;SDS011;1666;48.898;9.182;2022-12-07T11:36:10;12.60;;;6.82;;
3307;SDS011;1666;48.898;9.182;2022-12-07T11:38:53;10.18;;;7.03;;
3307;SDS011;1666;48.898;9.182;2022-12-07T11:41:27;10.68;;;6.47;;
3307;SDS011;1666;48.898;9.182;2022-12-07T11:44:04;12.15;;;7.47;;
3307;SDS011;1666;48.898;9.182;2022-12-07T11:46:42;13.30;;;6.70;;
3307;SDS011;1666;48.898;9.182;2022-12-07T11:49:19;12.55;;;6.53;;
3307;SDS011;1666;48.898;9.182;2022-12-07T11:51:54;10.05;;;6.65;;
3307;SDS011;1666;48.898;9.182;2022-12-07T11:54:27;10.48;;;6.78;;
3307;SDS011;1666;48.898;9.182;2022-12-07T11:57:01;11.60;;;6.38;;
3307;SDS011;1666;48.898;9.182;2022-12-07T11:59:38;9.20;;;6.22;;
3307;SDS011;1666;48.898;9.182;2022-12-07T12:02:13;12.48;;;7.38;;
3307;SDS011;1666;48.898;9.182;2022-12-07T12:04:47;12.82;;;7.40;;
3307;SDS011;1666;48.898;9.182;2022-12-07T12:07:24;11.35;;;7.22;;
3307;SDS011;1666;48.898;9.182;2022-12-07T12:10:17;12.15;;;7.38;;
3307;SDS011;1666;48.898;9.182;2022-12-07T12:12:59;10.00;;;6.75;;
3307;SDS011;1666;48.898;9.182;2022-12-07T12:16:17;11.55;;;7.07;;
3307;SDS011;1666;48.898;9.182;2022-12-07T12:19:07;12.27;;;7.22;;
3307;SDS011;1666;48.898;9.182;2022-12-07T12:21:55;13.13;;;7.32;;
3307;SDS011;1666;48.898;9.182;2022-12-07T12:24:32;12.55;;;7.43;;
3307;SDS011;1666;48.898;9.182;2022-12-07T12:27:06;9.90;;;5.95;;
3307;SDS011;1666;48.898;9.182;2022-12-07T12:29:39;11.43;;;6.60;;
3307;SDS011;1666;48.898;9.182;2022-12-07T12:32:17;11.98;;;7.70;;
3307;SDS011;1666;48.898;9.182;2022-12-07T12:35:17;11.60;;;7.38;;
3307;SDS011;1666;48.898;9.182;2022-12-07T12:37:53;13.30;;;7.35;;
3307;SDS011;1666;48.898;9.182;2022-12-07T12:40:37;12.65;;;7.28;;
3307;SDS011;1666;48.898;9.182;2022-12-07T12:49:33;13.45;;;7.65;;
3307;SDS011;1666;48.898;9.182;2022-12-07T12:58:39;12.13;;;7.53;;
3307;SDS011;1666;48.898;9.182;2022-12-07T13:25:31;15.77;;;8.70;;
3307;SDS011;1666;48.898;9.182;2022-12-07T13:28:13;17.75;;;10.23;;
3307;SDS011;1666;48.898;9.182;2022-12-07T13:30:46;15.80;;;8.65;;
3307;SDS011;1666;48.898;9.182;2022-12-07T13:33:32;15.60;;;8.82;;
3307;SDS011;1666;48.898;9.182;2022-12-07T13:36:05;15.83;;;9.80;;
3307;SDS011;1666;48.898;9.182;2022-12-07T13:38:53;17.52;;;9.68;;
3307;SDS011;1666;48.898;9.182;2022-12-07T13:41:25;16.20;;;9.00;;
3307;SDS011;1666;48.898;9.182;2022-12-07T13:44:03;16.67;;;9.40;;
3307;SDS011;1666;48.898;9.182;2022-12-07T13:46:43;17.42;;;10.48;;
3307;SDS011;1666;48.898;9.182;2022-12-07T13:49:20;15.07;;;9.50;;
3307;SDS011;1666;48.898;9.182;2022-12-07T13:51:51;17.33;;;10.35;;
3307;SDS011;1666;48.898;9.182;2022-12-07T13:54:22;20.85;;;10.25;;
3307;SDS011;1666;48.898;9.182;2022-12-07T13:56:52;18.50;;;9.90;;
3307;SDS011;1666;48.898;9.182;2022-12-07T13:59:25;15.18;;;9.50;;
3307;SDS011;1666;48.898;9.182;2022-12-07T14:01:59;16.63;;;9.40;;
3307;SDS011;1666;48.898;9.182;2022-12-07T14:04:30;17.58;;;9.30;;
3307;SDS011;1666;48.898;9.182;2022-12-07T14:09:58;14.63;;;8.93;;
3307;SDS011;1666;48.898;9.182;2022-12-07T14:12:30;18.58;;;9.38;;
3307;SDS011;1666;48.898;9.182;2022-12-07T14:15:03;19.02;;;9.77;;
3307;SDS011;1666;48.898;9.182;2022-12-07T14:17:36;16.48;;;10.30;;
3307;SDS011;1666;48.898;9.182;2022-12-07T14:20:31;16.15;;;9.50;;
3307;SDS011;1666;48.898;9.182;2022-12-07T14:23:04;17.95;;;8.68;;
3307;SDS011;1666;48.898;9.182;2022-12-07T14:25:50;19.27;;;9.77;;
3307;SDS011;1666;48.898;9.182;2022-12-07T14:28:25;16.80;;;9.88;;
3307;SDS011;1666;48.898;9.182;2022-12-07T14:33:28;16.60;;;8.65;;
3307;SDS011;1666;48.898;9.182;2022-12-07T14:35:58;17.75;;;10.20;;
3307;SDS011;1666;48.898;9.182;2022-12-07T14:38:28;16.55;;;9.82;;
3307;SDS011;1666;48.898;9.182;2022-12-07T14:40:58;16.92;;;9.48;;
3307;SDS011;1666;48.898;9.182;2022-12-07T14:43:48;17.02;;;9.82;;
3307;SDS011;1666;48.898;9.182;2022-12-07T14:46:41;18.27;;;9.68;;
3307;SDS011;1666;48.898;9.182;2022-12-07T14:49:12;16.35;;;9.45;;
3307;SDS011;1666;48.898;9.182;2022-12-07T14:51:57;23.92;;;10.32;;
3307;SDS011;1666;48.898;9.182;2022-12-07T14:54:47;16.95;;;9.77;;
3307;SDS011;1666;48.898;9.182;2022-12-07T14:57:17;20.45;;;10.93;;
3307;SDS011;1666;48.898;9.182;2022-12-07T14:59:47;16.92;;;10.55;;
3307;SDS011;1666;48.898;9.182;2022-12-07T15:02:20;17.08;;;10.40;;
3307;SDS011;1666;48.898;9.182;2022-12-07T15:04:50;15.82;;;9.57;;
3307;SDS011;1666;48.898;9.182;2022-12-07T15:07:20;17.23;;;10.18;;
3307;SDS011;1666;48.898;9.182;2022-12-07T15:09:51;17.80;;;9.95;;
3307;SDS011;1666;48.898;9.182;2022-12-07T15:12:21;17.83;;;8.93;;
3307;SDS011;1666;48.898;9.182;2022-12-07T15:14:51;14.02;;;8.55;;
3307;SDS011;1666;48.898;9.182;2022-12-07T15:17:23;15.80;;;8.38;;
3307;SDS011;1666;48.898;9.182;2022-12-07T15:19:57;18.40;;;8.52;;
3307;SDS011;1666;48.898;9.182;2022-12-07T15:22:27;14.63;;;7.95;;
3307;SDS011;1666;48.898;9.182;2022-12-07T15:25:04;16.40;;;10.32;;
3307;SDS011;1666;48.898;9.182;2022-12-07T15:27:35;17.85;;;9.88;;
3307;SDS011;1666;48.898;9.182;2022-12-07T15:30:05;20.45;;;12.38;;
3307;SDS011;1666;48.898;9.182;2022-12-07T15:32:38;20.77;;;11.35;;
3307;SDS011;1666;48.898;9.182;2022-12-07T15:35:08;19.95;;;11.20;;
3307;SDS011;1666;48.898;9.182;2022-12-07T15:37:38;18.02;;;11.00;;
3307;SDS011;1666;48.898;9.182;2022-12-07T15:40:09;21.67;;;10.63;;
3307;SDS011;1666;48.898;9.182;2022-12-07T15:42:40;21.70;;;11.10;;
3307;SDS011;1666;48.898;9.182;2022-12-07T15:45:10;18.63;;;10.50;;
3307;SDS011;1666;48.898;9.182;2022-12-07T15:47:40;25.23;;;11.52;;
3307;SDS011;1666;48.898;9.182;2022-12-07T15:50:31;20.70;;;11.63;;
3307;SDS011;1666;48.898;9.182;2022-12-07T15:53:01;27.77;;;11.75;;
3307;SDS011;1666;48.898;9.182;2022-12-07T15:55:31;31.15;;;13.10;;
3307;SDS011;1666;48.898;9.182;2022-12-07T15:58:01;22.02;;;12.50;;
3307;SDS011;1666;48.898;9.182;2022-12-07T16:00:31;24.98;;;12.90;;
3307;SDS011;1666;48.898;9.182;2022-12-07T16:03:03;20.77;;;12.38;;
3307;SDS011;1666;48.898;9.182;2022-12-07T16:05:33;23.73;;;11.65;;
3307;SDS011;1666;48.898;9.182;2022-12-07T16:08:03;18.58;;;12.13;;
3307;SDS011;1666;48.898;9.182;2022-12-07T16:10:34;21.25;;;12.02;;
3307;SDS011;1666;48.898;9.182;2022-12-07T16:13:04;20.67;;;12.02;;
3307;SDS011;1666;48.898;9.182;2022-12-07T16:15:37;18.20;;;11.70;;
3307;SDS011;1666;48.898;9.182;2022-12-07T16:18:09;21.42;;;11.70;;
3307;SDS011;1666;48.898;9.182;2022-12-07T16:20:39;21.65;;;11.88;;
3307;SDS011;1666;48.898;9.182;2022-12-07T16:23:09;24.25;;;12.57;;
3307;SDS011;1666;48.898;9.182;2022-12-07T16:25:39;22.85;;;12.13;;
3307;SDS011;1666;48.898;9.182;2022-12-07T16:28:09;22.55;;;12.32;;
3307;SDS011;1666;48.898;9.182;2022-12-07T16:30:39;25.75;;;11.95;;
3307;SDS011;1666;48.898;9.182;2022-12-07T16:33:11;21.70;;;12.60;;